This is the latest recevied weather packets stored in our database for station/object WD5U-1. If no packets are shown the sender has not sent any weather packets the latest 10 day(s).
| Time | Temp. | Humidity | Pressure | Rain* | Wind** | Luminosity | Snow |
|---|---|---|---|---|---|---|---|
| 1777825941 | 23.89° C | 51% | 1022.3 hPa | 0 mm | - | - | - |
| 1777825465 | 23.33° C | 52% | 1022.3 hPa | 0 mm | - | - | - |
| 1777825348 | 23.33° C | 52% | 1022.3 hPa | 0 mm | - | - | - |
| 1777824981 | 23.33° C | 53% | 1022.3 hPa | 0 mm | - | - | - |
| 1777823897 | 22.78° C | 54% | 1022.2 hPa | 0 mm | - | - | - |
| 1777823421 | 22.78° C | 54% | 1022.4 hPa | 0 mm | - | - | - |
| 1777821862 | 21.67° C | 54% | 1022.3 hPa | 0 mm | - | - | - |
| 1777821144 | 21.67° C | 54% | 1022.3 hPa | 0 mm | - | - | - |
| 1777821024 | 21.67° C | 53% | 1022.4 hPa | 0 mm | - | - | - |
| 1777820536 | 21.67° C | 56% | 1022.4 hPa | 0 mm | - | - | - |
| 1777820427 | 21.11° C | 55% | 1022.4 hPa | 0 mm | - | - | - |
| 1777819342 | 20.56° C | 56% | 1022.4 hPa | 0 mm | - | - | - |
| 1777817904 | 19.44° C | 63% | 1022.2 hPa | 0 mm | - | - | - |
| 1777815262 | 16.67° C | 71% | 1022 hPa | 0 mm | - | - | - |
| 1777814078 | 15.56° C | 72% | 1022.1 hPa | 0 mm | - | - | - |
| 1777812743 | 14.44° C | 76% | 1022 hPa | 0 mm | - | - | - |
| 1777812621 | 14.44° C | 76% | 1021.8 hPa | 0 mm | - | - | - |
| 1777812377 | 13.89° C | 76% | 1021.8 hPa | 0 mm | - | - | - |
| 1777812023 | 13.89° C | 76% | 1021.7 hPa | 0 mm | - | - | - |
| 1777811902 | 13.89° C | 75% | 1021.7 hPa | 0 mm | - | - | - |
| 1777810942 | 13.33° C | 76% | 1021.7 hPa | 0 mm | - | - | - |
| 1777810697 | 12.78° C | 76% | 1021.6 hPa | 0 mm | - | - | - |
| 1777810576 | 12.78° C | 76% | 1021.5 hPa | 0 mm | - | - | - |
| 1777809624 | 12.22° C | 79% | 1021.4 hPa | 0 mm | - | - | - |
| 1777809262 | 12.22° C | 79% | 1021.4 hPa | 0 mm | - | - | - |
* Rain latest hour (hover to see other rain measurements)
** Current wind speed in m/s (hover to see current wind gust speed)